createdAt,value
2023-04-11T00:02:12.009Z,27.4
2023-04-11T00:08:05.791Z,27.4
2023-04-11T00:13:57.813Z,27.4
2023-04-11T00:19:50.167Z,27.3
2023-04-11T00:25:42.295Z,27.3
2023-04-11T00:31:33.820Z,27.3
2023-04-11T00:37:25.623Z,27.3
2023-04-11T00:43:17.345Z,27.3
2023-04-11T00:49:08.980Z,27.3
2023-04-11T00:55:00.080Z,27.3
2023-04-11T01:00:51.889Z,27.3
2023-04-11T01:06:46.013Z,27.3
2023-04-11T01:12:38.068Z,27.6
2023-04-11T01:18:30.941Z,28.1
2023-04-11T01:23:51.729Z,28.8
2023-04-11T01:29:42.429Z,29.4
2023-04-11T01:35:35.288Z,30.2
2023-04-11T01:40:56.151Z,30.9
2023-04-11T01:46:47.615Z,31.6
2023-04-11T01:52:39.545Z,32.4
2023-04-11T01:58:30.476Z,33.2
2023-04-11T02:04:07.999Z,33.9
2023-04-11T02:10:00.650Z,34.7
2023-04-11T02:15:52.166Z,35.5
2023-04-11T02:21:44.174Z,36.3
2023-04-11T02:27:36.534Z,37.1
2023-04-11T02:33:28.701Z,37.8
2023-04-11T02:39:19.118Z,38.3
2023-04-11T02:45:10.663Z,38.4
2023-04-11T02:51:14.934Z,38.6
2023-04-11T02:57:06.200Z,38.6
2023-04-11T03:02:58.724Z,38.8
2023-04-11T03:08:35.504Z,38.8
2023-04-11T03:14:27.195Z,38.8
2023-04-11T03:20:19.578Z,38.8
2023-04-11T03:26:10.819Z,38.7
2023-04-11T03:32:02.005Z,38.7
2023-04-11T03:37:54.617Z,38.6
2023-04-11T03:43:30.700Z,38.6
2023-04-11T03:49:25.191Z,38.6
2023-04-11T03:55:20.056Z,38.6
2023-04-11T04:00:56.456Z,38.7
2023-04-11T04:06:50.801Z,38.6
2023-04-11T04:12:43.250Z,38.6
2023-04-11T04:18:35.043Z,38.5
2023-04-11T04:24:26.871Z,38.4
2023-04-11T04:30:23.496Z,38.4
2023-04-11T04:36:14.972Z,38.3
2023-04-11T04:42:07.174Z,38.3
2023-04-11T04:47:44.081Z,38.2
2023-04-11T04:53:36.413Z,38.1
2023-04-11T04:59:12.926Z,38.1
2023-04-11T05:05:07.275Z,38
2023-04-11T05:10:59.372Z,37.9
2023-04-11T05:16:53.422Z,37.9
2023-04-11T05:22:45.370Z,37.9
2023-04-11T05:28:37.095Z,37.8
2023-04-11T05:34:28.432Z,37.8
2023-04-11T05:40:20.649Z,37.7
2023-04-11T05:46:11.520Z,37.7
2023-04-11T05:52:02.927Z,37.6
2023-04-11T05:57:55.412Z,37.6
2023-04-11T06:03:39.405Z,37.6
2023-04-11T06:09:34.028Z,37.5
2023-04-11T06:15:28.902Z,37.4
2023-04-11T06:21:20.493Z,37.4
2023-04-11T06:27:11.193Z,37.4
2023-04-11T06:33:03.780Z,37.3
2023-04-11T06:38:55.775Z,37.3
2023-04-11T06:44:47.971Z,43.8
2023-04-11T06:50:24.744Z,42.7
2023-04-11T06:56:01.282Z,41.6
2023-04-11T07:01:53.341Z,40.9
2023-04-11T07:07:50.821Z,45.1
2023-04-11T07:13:42.587Z,42.8
2023-04-11T07:19:34.929Z,41.4
2023-04-11T07:25:26.911Z,40.6
2023-04-11T07:31:22.121Z,39.9
2023-04-11T07:36:58.172Z,47.1
2023-04-11T07:42:50.015Z,43.9
2023-04-11T07:48:41.790Z,41.9
2023-04-11T07:54:32.803Z,51.1
2023-04-11T08:00:26.673Z,49.8
2023-04-11T08:06:20.706Z,48.6
2023-04-11T08:12:13.772Z,47.4
2023-04-11T08:18:17.184Z,46.8
2023-04-11T08:24:11.417Z,46.1
2023-04-11T08:30:04.755Z,45.6
2023-04-11T08:35:45.205Z,45.1
2023-04-11T08:41:37.678Z,45.3
2023-04-11T08:47:28.478Z,46.8
2023-04-11T08:53:20.945Z,46.7
2023-04-11T08:59:13.915Z,50.1
2023-04-11T09:05:06.296Z,50.4
2023-04-11T09:10:58.334Z,48.9
2023-04-11T09:16:51.271Z,47.4
2023-04-11T09:22:49.951Z,49.8
2023-04-11T09:28:44.849Z,47.6
2023-04-11T09:34:36.874Z,46.8
2023-04-11T09:40:28.190Z,46.2
2023-04-11T09:46:33.521Z,48.4
2023-04-11T09:52:58.459Z,48.6
2023-04-11T09:58:51.279Z,53.2
2023-04-11T10:04:45.275Z,53.5
2023-04-11T10:10:37.214Z,53.6
2023-04-11T10:16:28.444Z,54.3
2023-04-11T10:22:25.352Z,55.3
2023-04-11T10:28:01.743Z,53.2
2023-04-11T10:33:53.298Z,57.9
2023-04-11T10:39:14.713Z,53.6
2023-04-11T10:45:07.112Z,55.8
2023-04-11T10:50:58.851Z,53.4
2023-04-11T10:56:50.931Z,56.8
2023-04-11T11:02:59.903Z,54.8
2023-04-11T11:08:58.886Z,51.4
2023-04-11T11:14:52.428Z,49.9
2023-04-11T11:20:44.752Z,50.7
2023-04-11T11:26:30.042Z,55.8
2023-04-11T11:32:22.188Z,53.9
2023-04-11T11:38:18.050Z,53.6
2023-04-11T11:44:08.996Z,57.6
2023-04-11T11:49:33.441Z,55.1
2023-04-11T11:55:27.643Z,52.9
2023-04-11T12:01:03.431Z,55
2023-04-11T12:06:58.432Z,52.4
2023-04-11T12:18:13.803Z,53.7
2023-04-11T12:23:50.340Z,51.8
2023-04-11T12:30:04.544Z,51.3
2023-04-11T12:35:58.269Z,47.8
2023-04-11T12:42:23.759Z,44.9
2023-04-11T12:48:00.296Z,55.7
2023-04-11T12:53:52.121Z,57.4
2023-04-11T12:59:43.545Z,54.8
2023-04-11T13:05:46.147Z,54.3
2023-04-11T13:11:38.400Z,52.6
2023-04-11T13:17:45.853Z,50.7
2023-04-11T13:23:38.080Z,48.2
2023-04-11T13:29:30.873Z,45.1
2023-04-11T13:35:23.902Z,43.3
2023-04-11T13:41:17.056Z,41.9
2023-04-11T13:47:08.813Z,40.9
2023-04-11T13:52:45.387Z,40.2
2023-04-11T13:58:37.372Z,39.7
2023-04-11T14:04:46.884Z,39.3
2023-04-11T14:10:39.100Z,38.9
2023-04-11T14:16:41.562Z,38.6
2023-04-11T14:22:34.806Z,38.4
2023-04-11T14:28:27.560Z,38.2
2023-04-11T14:34:21.067Z,38.1
2023-04-11T14:40:12.781Z,37.9
2023-04-11T14:46:06.953Z,37.8
2023-04-11T14:51:59.236Z,37.8
2023-04-11T14:57:51.063Z,37.6
2023-04-11T15:03:44.136Z,37.5
2023-04-11T15:09:37.112Z,37.4
2023-04-11T15:15:29.060Z,37.3
2023-04-11T15:21:23.480Z,37.1
2023-04-11T15:27:15.151Z,37
2023-04-11T15:33:07.530Z,36.9
2023-04-11T15:39:02.068Z,36.7
2023-04-11T15:44:38.406Z,36.6
2023-04-11T15:50:30.590Z,36.4
2023-04-11T15:56:23.329Z,36.3
2023-04-11T16:02:15.424Z,36.1
2023-04-11T16:07:57.837Z,36.1
2023-04-11T16:13:49.776Z,35.9
2023-04-11T16:19:26.482Z,35.9
2023-04-11T16:25:19.130Z,35.8
2023-04-11T16:31:12.867Z,35.8
2023-04-11T16:37:07.518Z,35.6
2023-04-11T16:43:01.553Z,35.5
2023-04-11T16:48:07.930Z,35.5
2023-04-11T16:53:29.320Z,35.6
2023-04-11T16:59:20.712Z,35.6
2023-04-11T17:05:15.115Z,35.6
2023-04-11T17:11:07.330Z,35.6
2023-04-11T17:16:28.309Z,35.6
2023-04-11T17:22:05.479Z,35.5
2023-04-11T17:27:57.257Z,35.5
2023-04-11T17:33:49.626Z,35.4
2023-04-11T17:39:41.136Z,35.4
2023-04-11T17:45:50.951Z,35.4
2023-04-11T17:51:29.323Z,35.4
2023-04-11T17:57:17.785Z,35.3
2023-04-11T18:03:27.207Z,35.3
2023-04-11T18:09:22.660Z,35.3
2023-04-11T18:14:43.434Z,35.2
2023-04-11T18:20:19.845Z,35.2
2023-04-11T18:25:41.102Z,35.1
2023-04-11T18:31:33.240Z,35.1
2023-04-11T18:37:41.174Z,35.1
2023-04-11T18:43:38.277Z,35
2023-04-11T18:49:24.259Z,34.3
2023-04-11T18:55:08.988Z,33.9
2023-04-11T19:01:17.479Z,34.3
2023-04-11T19:07:01.100Z,34.3
2023-04-11T19:12:38.197Z,34.4
2023-04-11T19:18:16.970Z,34.3
2023-04-11T19:23:55.464Z,34.3
2023-04-11T19:29:32.525Z,34.4
2023-04-11T19:35:10.906Z,34.4
2023-04-11T19:40:49.012Z,34.5
2023-04-11T19:46:11.385Z,34.5
2023-04-11T19:51:51.297Z,34.5
2023-04-11T19:57:29.692Z,34.4
2023-04-11T20:03:08.693Z,34.4
2023-04-11T20:08:33.484Z,34.8
2023-04-11T20:14:12.681Z,35.3
2023-04-11T20:19:49.917Z,35.5
2023-04-11T20:25:10.941Z,35.6
2023-04-11T20:30:48.043Z,35.7
2023-04-11T20:36:25.698Z,35.7
2023-04-11T20:42:04.367Z,35.7
2023-04-11T20:47:41.527Z,35.8
2023-04-11T20:53:18.242Z,35.7
2023-04-11T20:58:54.285Z,35.7
2023-04-11T21:04:32.878Z,35.6
2023-04-11T21:10:24.654Z,35.6
2023-04-11T21:16:15.808Z,35.6
2023-04-11T21:22:07.088Z,35.6
2023-04-11T21:27:58.704Z,35.6
2023-04-11T21:33:35.876Z,35.6
2023-04-11T21:39:27.789Z,35.6
2023-04-11T21:45:19.369Z,35.5
2023-04-11T21:51:11.662Z,35.5
2023-04-11T21:57:04.166Z,35.5
2023-04-11T22:03:09.246Z,35.4
2023-04-11T22:09:13.666Z,35.4
2023-04-11T22:15:16.195Z,35.4
2023-04-11T22:21:08.656Z,35.4
2023-04-11T22:27:00.452Z,35.4
2023-04-11T22:32:52.802Z,35.3
2023-04-11T22:38:29.014Z,35.3
2023-04-11T22:44:20.615Z,35.3
2023-04-11T22:50:12.944Z,35.3
2023-04-11T22:56:04.046Z,35.2
2023-04-11T23:01:54.758Z,35.2
2023-04-11T23:07:47.543Z,35.2
2023-04-11T23:13:24.277Z,35.1
2023-04-11T23:19:16.028Z,35.1
2023-04-11T23:24:51.962Z,35.1
2023-04-11T23:30:43.568Z,35.1
2023-04-11T23:36:19.547Z,35.1
2023-04-11T23:41:40.295Z,35
2023-04-11T23:47:01.683Z,35
2023-04-11T23:52:21.875Z,34.9
2023-04-11T23:57:26.904Z,34.9
